Time;durP1;ratioP1;P1;durP2;ratioP2;P2;SDS_P1;SDS_P2;PMS_P1;PMS_P2;Temp;Humidity;BMP_temperature;BMP_pressure;BME280_temperature;BME280_humidity;BME280_pressure;Samples;Min_cycle;Max_cycle;Signal;HPM_P1;HPM_P2
2021/10/12 00:00:44;;;;;;;2.65;2.10;;;;;;;26.15;33.89;97311.75;4984753;28;20026;-34
2021/10/12 00:03:10;;;;;;;3.17;2.15;;;;;;;26.14;33.87;97310.06;4985736;28;20456;-30
2021/10/12 00:05:35;;;;;;;2.15;1.80;;;;;;;26.15;33.79;97317.00;4986483;28;20306;-32
2021/10/12 00:08:00;;;;;;;3.22;1.80;;;;;;;26.15;33.90;97306.50;4983720;28;20060;-33
2021/10/12 00:10:26;;;;;;;2.20;1.80;;;;;;;26.15;33.83;97317.88;4986660;28;20031;-29
2021/10/12 00:12:51;;;;;;;2.35;1.70;;;;;;;26.15;33.82;97303.88;4985237;28;20091;-31
2021/10/12 00:15:17;;;;;;;3.35;1.95;;;;;;;26.16;33.79;97300.34;4986494;28;20033;-34
2021/10/12 00:17:42;;;;;;;2.40;2.20;;;;;;;26.15;33.76;97299.47;4984914;28;20550;-35
2021/10/12 00:20:08;;;;;;;2.67;2.20;;;;;;;26.15;33.80;97293.38;4988578;28;20046;-34
2021/10/12 00:22:34;;;;;;;4.32;2.20;;;;;;;26.15;33.77;97301.25;4982808;28;20791;-31
2021/10/12 00:25:00;;;;;;;2.13;1.80;;;;;;;26.15;33.91;97309.13;4991727;28;20615;-36
2021/10/12 00:27:25;;;;;;;2.13;1.92;;;;;;;26.14;33.85;97299.53;4982785;28;20033;-33
2021/10/12 00:29:50;;;;;;;2.60;1.92;;;;;;;26.14;33.79;97296.91;4978157;28;20022;-32
2021/10/12 00:32:16;;;;;;;2.10;1.90;;;;;;;26.14;33.80;97300.41;4981493;28;20037;-34
2021/10/12 00:34:41;;;;;;;2.20;1.90;;;;;;;26.14;33.59;97294.28;4974094;28;20041;-31
2021/10/12 00:37:07;;;;;;;2.28;1.90;;;;;;;26.14;33.91;97289.03;4973124;28;20034;-28
2021/10/12 00:39:32;;;;;;;5.82;1.95;;;;;;;26.14;33.75;97289.03;4976998;28;20500;-30
2021/10/12 00:41:58;;;;;;;2.13;1.75;;;;;;;26.15;33.87;97290.72;4977495;28;20133;-33
2021/10/12 00:44:25;;;;;;;2.42;2.08;;;;;;;26.14;33.81;97284.66;4975183;28;20068;-32
2021/10/12 00:46:50;;;;;;;3.65;2.10;;;;;;;26.15;33.78;97290.72;4975629;28;20029;-37
2021/10/12 00:49:15;;;;;;;8.00;3.20;;;;;;;26.14;33.66;97289.03;4976402;28;20957;-33
2021/10/12 00:51:41;;;;;;;2.90;2.15;;;;;;;26.13;33.67;97293.47;4974860;28;20630;-34
2021/10/12 00:54:06;;;;;;;2.90;2.25;;;;;;;26.13;33.64;97288.22;4975634;28;20064;-36
2021/10/12 00:56:32;;;;;;;2.50;1.95;;;;;;;26.13;33.78;97287.34;4974656;28;20396;-32
2021/10/12 00:58:57;;;;;;;5.35;2.22;;;;;;;26.14;33.64;97286.41;4989580;28;20030;-37
2021/10/12 01:01:22;;;;;;;3.20;2.33;;;;;;;26.14;33.70;97286.41;4972733;28;20038;-34
2021/10/12 01:03:48;;;;;;;3.80;2.17;;;;;;;26.12;33.78;97291.72;4979806;28;20018;-28
2021/10/12 01:06:13;;;;;;;3.30;2.28;;;;;;;26.12;33.69;97288.28;4989104;28;20041;-36
2021/10/12 01:08:39;;;;;;;2.10;1.88;;;;;;;26.13;33.82;97282.09;4985872;28;20034;-34
2021/10/12 01:11:04;;;;;;;2.63;2.08;;;;;;;26.12;33.78;97283.03;4988164;28;20584;-31
2021/10/12 01:13:29;;;;;;;1.80;1.70;;;;;;;26.12;33.70;97280.41;4970403;28;20041;-34
2021/10/12 01:15:55;;;;;;;5.00;2.25;;;;;;;26.12;33.85;97280.41;4977199;28;20037;-35
2021/10/12 01:18:20;;;;;;;2.38;1.80;;;;;;;26.13;33.73;97268.97;4987055;28;20284;-33
2021/10/12 01:20:46;;;;;;;3.05;1.90;;;;;;;26.12;33.76;97270.72;4987752;28;20033;-31
2021/10/12 01:23:12;;;;;;;2.08;1.70;;;;;;;26.12;33.79;97275.97;4981773;28;20027;-31
2021/10/12 01:25:37;;;;;;;2.25;1.95;;;;;;;26.13;33.88;97277.69;4986641;28;20083;-34
2021/10/12 01:28:04;;;;;;;2.10;1.90;;;;;;;26.13;33.75;97274.22;4986240;28;20030;-34
2021/10/12 01:30:29;;;;;;;4.32;2.10;;;;;;;26.13;33.82;97274.22;4984742;28;20022;-38
2021/10/12 01:32:55;;;;;;;2.80;1.90;;;;;;;26.12;33.87;97269.88;4988653;28;20402;-35
2021/10/12 01:35:20;;;;;;;3.58;2.20;;;;;;;26.12;33.70;97264.63;4984658;28;20108;-34
2021/10/12 01:37:45;;;;;;;2.63;1.92;;;;;;;26.12;33.89;97259.38;4985948;28;20251;-29
2021/10/12 01:40:12;;;;;;;2.28;1.80;;;;;;;26.12;33.78;97248.88;4988185;28;20045;-36
2021/10/12 01:42:37;;;;;;;2.47;1.73;;;;;;;26.12;33.83;97249.72;4987715;28;20582;-31
2021/10/12 01:45:06;;;;;;;4.03;1.80;;;;;;;26.13;33.80;97245.31;4986205;28;20473;-28
2021/10/12 01:47:31;;;;;;;2.03;1.83;;;;;;;26.10;33.78;97236.63;4972542;28;20030;-29
2021/10/12 01:49:56;;;;;;;1.70;1.60;;;;;;;26.12;33.73;97227.88;4978631;28;20037;-32
2021/10/12 01:52:22;;;;;;;2.85;1.70;;;;;;;26.13;33.82;97234.81;4984301;28;20049;-36
2021/10/12 01:54:47;;;;;;;2.30;1.80;;;;;;;26.10;33.82;97226.13;4986343;28;20034;-35
2021/10/12 01:57:13;;;;;;;2.30;2.10;;;;;;;26.10;33.79;97231.38;4980707;28;20092;-35
2021/10/12 01:59:38;;;;;;;2.00;1.80;;;;;;;26.10;33.82;97220.88;4982931;28;20734;-33
2021/10/12 02:02:04;;;;;;;2.13;1.80;;;;;;;26.10;33.71;97226.13;4983755;28;20041;-32
2021/10/12 02:04:33;;;;;;;3.28;1.90;;;;;;;26.10;33.73;97220.88;4980173;28;20029;-37
2021/10/12 02:06:59;;;;;;;3.05;2.10;;;;;;;26.09;33.73;97219.19;4986150;28;20389;-33
2021/10/12 02:09:24;;;;;;;2.65;2.00;;;;;;;26.11;33.76;97221.75;4986610;28;20033;-32
2021/10/12 02:11:50;;;;;;;2.00;1.65;;;;;;;26.10;33.85;97226.13;4988530;28;20571;-33
2021/10/12 02:14:15;;;;;;;2.05;1.90;;;;;;;26.09;33.80;97224.44;4986212;28;20099;-35
2021/10/12 02:16:41;;;;;;;3.33;2.08;;;;;;;26.10;33.81;97209.53;4987185;28;20580;-33
2021/10/12 02:19:06;;;;;;;2.15;1.70;;;;;;;26.09;33.78;97208.69;4976758;28;20547;-28
2021/10/12 02:21:32;;;;;;;3.15;1.55;;;;;;;26.09;33.93;97192.91;4973898;28;20034;-34
2021/10/12 02:23:57;;;;;;;1.73;1.60;;;;;;;26.09;33.84;97190.28;4974485;28;20029;-34
2021/10/12 02:26:23;;;;;;;2.28;1.60;;;;;;;26.10;33.74;97188.53;4982332;28;20053;-32
2021/10/12 02:28:48;;;;;;;2.67;1.50;;;;;;;26.09;33.84;97182.41;4983318;28;20034;-34
2021/10/12 02:31:14;;;;;;;3.38;1.50;;;;;;;26.10;33.96;97178.03;4980428;28;20045;-30
2021/10/12 02:33:40;;;;;;;2.10;1.85;;;;;;;26.09;33.82;97177.16;4981547;28;20034;-36
2021/10/12 02:36:05;;;;;;;1.98;1.80;;;;;;;26.09;33.86;97189.47;4975991;28;20041;-31
2021/10/12 02:38:30;;;;;;;2.85;1.80;;;;;;;26.09;33.81;97192.91;4976727;28;20057;-31
2021/10/12 02:40:56;;;;;;;2.67;1.98;;;;;;;26.09;33.86;97187.66;4976301;28;20030;-34
2021/10/12 02:43:21;;;;;;;2.00;1.70;;;;;;;26.09;33.95;97186.84;4985170;28;20029;-29
2021/10/12 02:45:46;;;;;;;1.92;1.60;;;;;;;26.08;33.92;97183.34;4977772;28;20087;-29
2021/10/12 02:48:12;;;;;;;2.17;1.80;;;;;;;26.09;34.03;97187.66;4984577;28;20570;-36
2021/10/12 02:50:37;;;;;;;1.85;1.50;;;;;;;26.08;33.82;97178.09;4988471;28;20045;-33
2021/10/12 02:53:03;;;;;;;1.50;1.35;;;;;;;26.08;33.90;97162.34;4988602;28;20037;-30
2021/10/12 02:55:28;;;;;;;1.95;1.73;;;;;;;26.09;33.88;97165.84;4988263;28;20453;-32
2021/10/12 02:57:53;;;;;;;2.40;1.63;;;;;;;26.08;33.81;97164.97;4993191;28;20100;-32
2021/10/12 03:00:19;;;;;;;1.83;1.67;;;;;;;26.08;33.80;97164.97;4980477;28;20084;-33
2021/10/12 03:02:44;;;;;;;4.10;1.80;;;;;;;26.06;33.87;97155.47;4984238;28;20076;-31
2021/10/12 03:05:10;;;;;;;2.22;1.85;;;;;;;26.07;33.79;97144.88;4987565;28;20294;-34
2021/10/12 03:07:35;;;;;;;2.42;1.67;;;;;;;26.08;33.90;97145.72;4990040;28;20113;-33
2021/10/12 03:10:02;;;;;;;2.40;1.67;;;;;;;26.08;33.79;97138.69;4983828;28;20037;-34
2021/10/12 03:12:28;;;;;;;1.58;1.45;;;;;;;26.08;33.82;97132.59;4992926;28;20021;-36
2021/10/12 03:14:53;;;;;;;2.10;1.90;;;;;;;26.07;33.83;97131.75;4988834;28;20053;-30
2021/10/12 03:17:19;;;;;;;2.42;1.50;;;;;;;26.08;33.90;97122.09;4982688;28;20703;-29
2021/10/12 03:19:44;;;;;;;1.80;1.70;;;;;;;26.06;33.93;97116.94;4979082;28;20037;-31
2021/10/12 03:22:11;;;;;;;2.13;1.77;;;;;;;26.06;33.94;97111.69;4981493;28;20108;-33
2021/10/12 03:24:37;;;;;;;1.95;1.50;;;;;;;26.06;33.81;97108.19;4987103;28;20030;-36
2021/10/12 03:27:03;;;;;;;2.13;1.88;;;;;;;26.06;33.94;97109.06;4986345;28;20026;-33
2021/10/12 03:29:28;;;;;;;2.15;1.75;;;;;;;26.06;33.70;97109.06;4990524;28;20089;-34
2021/10/12 03:31:54;;;;;;;2.40;1.42;;;;;;;26.06;33.84;97093.28;4991489;28;20041;-35
2021/10/12 03:34:19;;;;;;;2.05;1.85;;;;;;;26.06;33.76;97095.91;4988162;28;20029;-29
2021/10/12 03:36:44;;;;;;;2.45;1.90;;;;;;;26.07;33.82;97094.13;4977671;28;20750;-31
2021/10/12 03:39:10;;;;;;;3.47;1.70;;;;;;;26.05;33.93;97099.44;4976028;28;20030;-29
2021/10/12 03:41:35;;;;;;;1.70;1.48;;;;;;;26.05;33.83;97099.44;4988236;28;20161;-36
2021/10/12 03:44:01;;;;;;;3.08;1.50;;;;;;;26.05;33.82;97107.31;4987663;28;20030;-32
2021/10/12 03:46:26;;;;;;;1.90;1.50;;;;;;;26.06;33.79;97103.81;4985864;28;20034;-33
2021/10/12 03:48:51;;;;;;;1.83;1.63;;;;;;;26.05;34.00;97117.00;4992204;28;20460;-36
2021/10/12 03:51:17;;;;;;;4.45;1.88;;;;;;;26.05;33.89;97109.94;4987443;28;20034;-31
2021/10/12 03:53:42;;;;;;;1.42;1.33;;;;;;;26.05;33.86;97117.00;4986412;28;20037;-34
2021/10/12 03:56:08;;;;;;;1.60;1.50;;;;;;;26.05;34.00;97112.59;4983571;28;20045;-34
2021/10/12 03:58:33;;;;;;;3.97;1.67;;;;;;;26.05;33.88;97109.94;4986671;28;20029;-34
2021/10/12 04:00:58;;;;;;;2.10;1.90;;;;;;;26.04;33.79;97103.00;4990980;28;20890;-36
2021/10/12 04:03:24;;;;;;;1.90;1.75;;;;;;;26.04;34.02;97105.63;4990765;28;20565;-33
2021/10/12 04:05:49;;;;;;;2.05;1.70;;;;;;;26.04;33.97;97108.25;4992182;28;20030;-35
2021/10/12 04:08:15;;;;;;;2.70;1.58;;;;;;;26.04;33.82;97103.00;4988063;28;20037;-32
2021/10/12 04:10:40;;;;;;;3.92;1.77;;;;;;;26.04;33.98;97107.41;4988933;28;20552;-33
2021/10/12 04:13:06;;;;;;;2.53;1.70;;;;;;;26.04;33.90;97108.25;4989534;28;20116;-36
2021/10/12 04:15:32;;;;;;;1.98;1.60;;;;;;;26.01;33.91;97108.41;4987332;28;20104;-36
2021/10/12 04:17:57;;;;;;;3.65;1.65;;;;;;;26.03;33.85;97109.19;4989826;28;20103;-36
2021/10/12 04:20:27;;;;;;;3.72;2.00;;;;;;;26.03;33.75;97106.56;4988043;28;20025;-35
2021/10/12 04:22:53;;;;;;;1.67;1.50;;;;;;;26.03;33.98;97109.19;4979580;28;20077;-36
2021/10/12 04:25:19;;;;;;;2.33;1.75;;;;;;;26.03;33.97;97103.06;4979357;28;20030;-37
2021/10/12 04:27:44;;;;;;;1.63;1.52;;;;;;;26.03;33.91;97100.44;4982286;28;20656;-34
2021/10/12 04:30:10;;;;;;;1.67;1.58;;;;;;;26.03;33.99;97095.19;4980564;28;20053;-29
2021/10/12 04:32:35;;;;;;;3.30;1.80;;;;;;;26.02;33.92;97097.00;4984702;28;20609;-35
2021/10/12 04:35:01;;;;;;;1.92;1.70;;;;;;;26.03;33.80;97093.44;4981399;28;20034;-33
2021/10/12 04:37:26;;;;;;;3.22;1.60;;;;;;;26.04;34.02;97099.53;4983822;28;20030;-36
2021/10/12 04:39:52;;;;;;;1.65;1.45;;;;;;;26.02;33.89;97091.75;4984126;28;20456;-30
2021/10/12 04:42:17;;;;;;;1.95;1.45;;;;;;;26.02;33.99;97091.75;4984733;28;20030;-34
2021/10/12 04:44:42;;;;;;;3.75;1.60;;;;;;;26.02;33.85;97086.50;4982199;28;20030;-37
2021/10/12 04:47:11;;;;;;;2.03;1.70;;;;;;;26.03;33.87;97088.19;4984944;28;20694;-33
2021/10/12 04:49:36;;;;;;;2.15;1.95;;;;;;;26.02;33.70;97085.63;4989664;28;20096;-28
2021/10/12 04:52:02;;;;;;;2.30;1.73;;;;;;;26.02;34.03;97086.50;4981108;28;20025;-36
2021/10/12 04:54:27;;;;;;;4.55;1.80;;;;;;;26.01;33.90;97079.50;4987407;28;20084;-35
2021/10/12 04:56:52;;;;;;;1.88;1.70;;;;;;;26.02;33.78;97083.88;4984577;28;20034;-29
2021/10/12 04:59:18;;;;;;;3.63;1.60;;;;;;;26.02;33.97;97081.25;4989148;28;20080;-34
2021/10/12 05:01:43;;;;;;;2.40;1.60;;;;;;;26.02;33.83;97078.63;4983920;28;20274;-33
2021/10/12 05:04:09;;;;;;;3.30;3.00;;;;;;;26.01;33.68;97082.13;4976790;28;20029;-34
2021/10/12 05:06:34;;;;;;;3.10;1.90;;;;;;;26.01;33.85;97078.69;4974817;28;20037;-35
2021/10/12 05:08:59;;;;;;;1.80;1.70;;;;;;;26.00;33.85;97069.13;4982612;28;20059;-30
2021/10/12 05:11:25;;;;;;;2.58;1.50;;;;;;;26.00;33.82;97066.50;4987294;28;20038;-34
2021/10/12 05:13:52;;;;;;;2.28;1.80;;;;;;;25.99;33.86;97076.13;4990890;28;20029;-33
2021/10/12 05:16:19;;;;;;;2.35;1.98;;;;;;;25.99;33.95;97065.63;4989963;28;20108;-37
2021/10/12 05:18:46;;;;;;;1.85;1.60;;;;;;;25.98;34.00;97074.44;4987384;28;20036;-35
2021/10/12 05:21:12;;;;;;;2.95;1.80;;;;;;;25.99;33.86;97070.88;4987932;28;20112;-31
2021/10/12 05:23:37;;;;;;;1.73;1.55;;;;;;;25.99;33.79;97070.03;4987716;28;20036;-37
2021/10/12 05:26:03;;;;;;;2.85;1.60;;;;;;;25.99;33.95;97070.88;4983390;28;20022;-31
2021/10/12 05:28:29;;;;;;;1.60;1.48;;;;;;;25.98;33.93;97069.19;4984655;28;20500;-31
2021/10/12 05:30:54;;;;;;;1.95;1.50;;;;;;;25.99;34.05;97063.00;4982449;28;20076;-32
2021/10/12 05:33:20;;;;;;;1.88;1.50;;;;;;;25.98;33.88;97071.81;4987110;28;20053;-30
2021/10/12 05:35:47;;;;;;;2.20;1.80;;;;;;;25.99;33.93;97070.88;4983545;28;20424;-30
2021/10/12 05:38:12;;;;;;;2.33;1.60;;;;;;;25.98;33.93;97063.06;4979953;28;20117;-28
2021/10/12 05:40:38;;;;;;;2.97;1.80;;;;;;;25.98;33.89;97050.81;4986966;28;20029;-30
2021/10/12 05:43:03;;;;;;;2.40;1.77;;;;;;;25.98;34.18;97052.56;4985693;28;20468;-33
2021/10/12 05:45:28;;;;;;;1.75;1.65;;;;;;;25.98;33.92;97052.56;4987628;28;20587;-31
2021/10/12 05:47:54;;;;;;;1.75;1.60;;;;;;;25.97;34.00;97049.09;4984236;28;20040;-33
2021/10/12 05:50:19;;;;;;;2.95;1.50;;;;;;;25.98;34.11;97050.81;4981812;28;20048;-36
2021/10/12 05:58:07;;;;;;;2.35;1.80;;;;;;;25.97;33.92;97062.22;4988859;28;20080;-34
2021/10/12 06:00:34;;;;;;;1.60;1.50;;;;;;;25.97;34.05;97059.59;4983117;28;20033;-30
2021/10/12 06:02:59;;;;;;;1.90;1.70;;;;;;;25.97;33.84;97062.22;4987971;28;20455;-38
2021/10/12 06:05:24;;;;;;;1.67;1.50;;;;;;;25.96;33.97;97060.53;4982885;28;20021;-34
2021/10/12 06:07:50;;;;;;;2.22;1.70;;;;;;;25.97;34.05;97062.22;4982740;28;20034;-34
2021/10/12 06:10:15;;;;;;;2.55;1.80;;;;;;;25.96;34.08;97065.78;4990183;28;20030;-32
2021/10/12 06:12:41;;;;;;;1.70;1.60;;;;;;;25.96;33.96;97060.53;4994688;28;20029;-32
2021/10/12 06:15:06;;;;;;;5.25;1.70;;;;;;;25.95;34.11;97059.69;4986526;28;20045;-37
2021/10/12 06:17:32;;;;;;;2.67;1.80;;;;;;;25.96;33.92;97060.53;4993179;28;20100;-31
2021/10/12 06:19:57;;;;;;;1.60;1.38;;;;;;;25.96;33.96;97060.53;4976416;28;20022;-33
2021/10/12 06:22:22;;;;;;;1.77;1.50;;;;;;;25.96;33.95;97057.88;4981204;28;20033;-30
2021/10/12 06:24:48;;;;;;;3.50;1.67;;;;;;;25.95;33.84;97064.06;4977048;28;20022;-29
2021/10/12 06:27:14;;;;;;;5.13;2.10;;;;;;;25.95;34.01;97061.44;4985494;28;20037;-36
2021/10/12 06:29:39;;;;;;;9.15;2.95;;;;;;;25.95;34.08;97069.31;4986547;28;20059;-34
2021/10/12 06:32:05;;;;;;;8.32;2.92;;;;;;;25.93;33.87;97076.44;4982409;28;20045;-32
2021/10/12 06:34:30;;;;;;;6.38;3.08;;;;;;;25.92;33.80;97070.34;4985092;28;20042;-32
2021/10/12 06:36:56;;;;;;;6.97;3.28;;;;;;;25.91;33.96;97070.41;4985425;28;20042;-29
2021/10/12 06:39:21;;;;;;;8.73;3.30;;;;;;;25.92;33.91;97079.97;4986995;28;20030;-34
2021/10/12 06:41:46;;;;;;;13.35;3.75;;;;;;;25.90;33.79;97071.34;4985933;28;20026;-37
2021/10/12 06:44:12;;;;;;;8.65;3.55;;;;;;;25.91;33.93;97073.03;4985863;28;20037;-32
2021/10/12 06:46:37;;;;;;;10.52;3.70;;;;;;;25.91;33.92;97075.66;4988214;28;20040;-32
2021/10/12 06:49:03;;;;;;;8.98;3.38;;;;;;;25.91;33.98;97078.28;4985390;28;20092;-37
2021/10/12 06:51:28;;;;;;;12.35;3.95;;;;;;;25.89;33.70;97086.22;5000952;28;20028;-33
2021/10/12 06:53:53;;;;;;;12.20;3.70;;;;;;;25.87;33.62;97074.09;5005157;28;20470;-32
2021/10/12 06:56:19;;;;;;;12.75;4.13;;;;;;;25.89;33.51;97072.28;5005022;28;20041;-38
2021/10/12 06:58:44;;;;;;;9.40;4.32;;;;;;;25.89;33.40;97075.72;5003461;28;20033;-31
2021/10/12 07:01:10;;;;;;;7.68;3.83;;;;;;;25.89;33.40;97077.53;5009741;28;20092;-34
2021/10/12 07:03:35;;;;;;;11.40;4.43;;;;;;;25.89;33.41;97077.53;5003675;28;20033;-32
2021/10/12 07:06:01;;;;;;;15.18;3.60;;;;;;;25.88;33.25;97074.03;5001968;28;20037;-31
2021/10/12 07:08:26;;;;;;;8.63;4.10;;;;;;;25.88;33.41;97067.91;5008522;28;20653;-38
2021/10/12 07:10:51;;;;;;;10.77;3.85;;;;;;;25.87;33.40;97071.47;5006943;28;20029;-31
2021/10/12 07:13:19;;;;;;;11.32;3.50;;;;;;;25.87;33.17;97071.47;5006747;28;20090;-33
2021/10/12 07:15:44;;;;;;;7.78;3.85;;;;;;;25.87;33.24;97076.72;5002820;28;20108;-33
2021/10/12 07:18:11;;;;;;;8.77;3.70;;;;;;;25.86;33.30;97075.03;5003473;28;20034;-29
2021/10/12 07:20:39;;;;;;;7.20;3.80;;;;;;;25.85;33.26;97089.94;5003227;28;20041;-35
2021/10/12 07:23:04;;;;;;;8.55;3.22;;;;;;;25.84;33.15;97080.34;5002562;28;20111;-31
2021/10/12 07:25:30;;;;;;;7.30;3.63;;;;;;;25.85;33.11;97089.09;5002739;28;20100;-33
2021/10/12 07:27:55;;;;;;;6.78;3.40;;;;;;;25.85;33.22;97083.84;5020674;28;20480;-34
2021/10/12 07:30:21;;;;;;;8.57;3.45;;;;;;;25.85;33.37;97086.47;5006679;28;20068;-33
2021/10/12 07:32:46;;;;;;;5.07;3.10;;;;;;;25.84;33.61;97080.34;5022218;28;20120;-27
2021/10/12 07:35:12;;;;;;;6.25;3.22;;;;;;;25.84;33.82;97080.34;5002855;28;20273;-35
2021/10/12 07:37:40;;;;;;;9.38;3.15;;;;;;;25.84;33.90;97077.72;5003914;28;20123;-33
2021/10/12 07:40:06;;;;;;;5.78;2.85;;;;;;;25.85;33.95;97070.72;5002648;28;20029;-37
2021/10/12 07:42:31;;;;;;;7.25;3.20;;;;;;;25.84;34.04;97077.72;5004307;28;20304;-32
2021/10/12 07:44:57;;;;;;;7.57;3.55;;;;;;;25.83;34.12;97076.88;5003167;28;20030;-30
2021/10/12 07:47:22;;;;;;;6.50;2.97;;;;;;;25.85;34.16;97076.81;5003609;28;20138;-34
2021/10/12 07:49:49;;;;;;;5.80;2.92;;;;;;;25.86;34.12;97072.41;5005074;28;20033;-32
2021/10/12 07:52:14;;;;;;;7.75;3.05;;;;;;;25.87;34.20;97076.72;5012422;28;20045;-37
2021/10/12 07:54:48;;;;;;;6.03;2.75;;;;;;;25.87;34.19;97087.22;5004079;28;20037;-33
2021/10/12 07:57:14;;;;;;;5.97;2.65;;;;;;;25.87;34.33;97076.72;4999050;28;20033;-31
2021/10/12 07:59:40;;;;;;;5.07;3.00;;;;;;;25.88;34.15;97062.66;5002116;28;20033;-35
2021/10/12 08:02:06;;;;;;;7.22;2.85;;;;;;;25.87;34.25;97046.09;5001821;28;20485;-27
2021/10/12 08:04:32;;;;;;;6.18;2.65;;;;;;;25.88;34.18;97047.78;5002482;28;20095;-30
2021/10/12 08:06:57;;;;;;;6.43;2.90;;;;;;;25.87;34.37;97034.72;5004396;28;20029;-32
2021/10/12 08:09:23;;;;;;;26.92;16.70;;;;;;;25.86;32.78;97033.03;5001206;28;20037;-33
2021/10/12 08:11:48;;;;;;;11.40;7.00;;;;;;;25.75;31.13;97031.78;5001095;28;20041;-33
2021/10/12 08:14:18;;;;;;;11.23;6.10;;;;;;;25.56;30.40;97030.03;5011146;28;20033;-34
2021/10/12 08:16:44;;;;;;;13.63;5.75;;;;;;;25.41;30.92;97028.13;5003259;28;20917;-36
2021/10/12 08:19:10;;;;;;;12.70;5.45;;;;;;;25.31;31.34;97033.81;5002805;28;20029;-35
2021/10/12 08:21:35;;;;;;;14.35;5.15;;;;;;;25.25;31.97;97044.59;4999542;28;20492;-35
2021/10/12 08:24:01;;;;;;;9.20;5.22;;;;;;;25.22;32.10;97047.38;5005839;28;20512;-36
2021/10/12 08:26:27;;;;;;;26.63;7.15;;;;;;;25.22;32.57;97044.75;5011001;28;20037;-34
2021/10/12 08:28:52;;;;;;;28.63;6.68;;;;;;;25.21;32.83;97036.94;5011628;28;20059;-34
2021/10/12 08:31:18;;;;;;;17.38;6.13;;;;;;;25.22;32.88;97044.75;5007992;28;20030;-36
2021/10/12 08:33:44;;;;;;;24.00;6.25;;;;;;;25.24;33.19;97052.56;5010515;28;20024;-35
2021/10/12 08:36:10;;;;;;;25.80;6.75;;;;;;;25.24;33.01;97045.53;5008686;28;20026;-33
2021/10/12 08:38:39;;;;;;;21.63;6.18;;;;;;;25.26;33.28;97046.31;5006164;28;20743;-33
2021/10/12 08:41:05;;;;;;;16.17;5.95;;;;;;;25.29;33.32;97042.69;5010378;28;20037;-33
2021/10/12 08:43:32;;;;;;;21.63;6.05;;;;;;;25.31;33.28;97039.06;5015408;28;20060;-33
2021/10/12 08:45:58;;;;;;;14.52;5.68;;;;;;;25.34;33.39;97038.06;5008868;28;20065;-32
2021/10/12 08:48:23;;;;;;;15.68;5.55;;;;;;;25.36;33.59;97040.63;5014556;28;20028;-31
2021/10/12 08:50:49;;;;;;;17.48;6.15;;;;;;;25.39;33.37;97030.84;4991044;28;20076;-29
2021/10/12 08:53:15;;;;;;;18.38;5.43;;;;;;;25.41;33.52;97038.63;5000992;28;20139;-32
2021/10/12 08:55:40;;;;;;;18.88;5.85;;;;;;;25.44;33.69;97033.25;5005507;28;20030;-36
2021/10/12 08:58:06;;;;;;;14.27;5.55;;;;;;;25.47;33.47;97029.63;5000181;28;20025;-29
2021/10/12 09:00:31;;;;;;;16.23;5.10;;;;;;;25.48;33.72;97023.44;5004295;28;20103;-29
2021/10/12 09:06:00;;;;;;;22.90;5.45;;;;;;;25.52;33.86;97031.09;5008785;28;20033;-34
2021/10/12 09:08:30;;;;;;;17.35;5.65;;;;;;;25.53;33.79;97027.56;5007537;28;20080;-35
2021/10/12 09:10:56;;;;;;;11.85;4.95;;;;;;;25.57;33.90;97026.53;5011499;28;20722;-31
2021/10/12 09:13:21;;;;;;;11.35;4.82;;;;;;;25.59;33.84;97025.59;5024745;28;20819;-32
2021/10/12 09:16:09;;;;;;;15.27;4.90;;;;;;;25.61;33.73;97023.72;5012003;28;20136;-34
2021/10/12 09:18:51;;;;;;;14.93;5.13;;;;;;;25.63;33.92;97022.72;5010778;28;20387;-29
2021/10/12 09:21:20;;;;;;;13.68;4.80;;;;;;;25.63;33.96;97019.28;5010457;28;20810;-36
2021/10/12 09:23:46;;;;;;;13.93;4.47;;;;;;;25.66;33.71;97021.75;5011368;28;20465;-34
2021/10/12 09:26:25;;;;;;;12.73;4.75;;;;;;;25.67;33.85;97020.81;4997201;28;20134;-34
2021/10/12 09:29:03;;;;;;;11.85;4.07;;;;;;;25.68;33.83;97017.25;5008686;28;20034;-37
2021/10/12 09:31:33;;;;;;;11.35;4.43;;;;;;;25.70;33.92;97018.03;5010467;28;20088;-35
2021/10/12 09:34:01;;;;;;;9.10;4.00;;;;;;;25.70;33.98;97004.91;5008722;28;20029;-35
2021/10/12 09:36:28;;;;;;;9.68;4.60;;;;;;;25.70;33.97;97002.28;4998587;28;20104;-35
2021/10/12 09:38:54;;;;;;;16.88;4.22;;;;;;;25.72;33.96;96999.56;5011041;28;20029;-32
2021/10/12 09:41:23;;;;;;;8.20;3.90;;;;;;;25.72;34.13;97000.44;5011764;28;20577;-36
2021/10/12 09:43:49;;;;;;;11.55;4.00;;;;;;;25.73;33.89;96991.63;5011708;28;20052;-35
2021/10/12 09:46:30;;;;;;;9.68;3.53;;;;;;;25.74;33.85;96988.06;5010693;28;20492;-30
2021/10/12 09:49:07;;;;;;;8.65;3.58;;;;;;;25.76;34.04;96983.63;5011497;28;20981;-34
2021/10/12 09:51:33;;;;;;;13.88;4.00;;;;;;;25.76;34.11;96983.63;5013279;28;20056;-32
2021/10/12 09:53:58;;;;;;;10.60;3.95;;;;;;;25.78;34.13;96979.13;5008884;28;20034;-37
2021/10/12 09:56:23;;;;;;;8.73;3.80;;;;;;;25.79;34.06;96980.84;5013112;28;20034;-36
2021/10/12 09:58:49;;;;;;;9.48;3.95;;;;;;;25.81;34.17;96983.38;5009812;28;20505;-30
2021/10/12 10:01:14;;;;;;;9.07;3.90;;;;;;;25.80;34.07;96969.41;5008623;28;20018;-37
2021/10/12 10:03:40;;;;;;;15.93;3.58;;;;;;;25.82;34.13;96975.41;5009417;28;20029;-33
2021/10/12 10:06:10;;;;;;;9.63;3.47;;;;;;;25.82;33.99;96970.16;5012306;28;20110;-33
2021/10/12 10:08:39;;;;;;;7.13;3.22;;;;;;;25.83;34.20;96971.84;5012964;28;20036;-37
2021/10/12 10:11:06;;;;;;;7.10;3.33;;;;;;;25.83;34.11;96969.22;5009135;28;20327;-35
2021/10/12 10:13:33;;;;;;;9.40;3.58;;;;;;;25.85;34.00;96968.34;5012770;28;20038;-34
2021/10/12 10:15:59;;;;;;;7.20;3.00;;;;;;;25.85;34.12;96957.81;5015228;28;20421;-34
2021/10/12 10:18:24;;;;;;;8.82;3.80;;;;;;;25.85;34.14;96965.69;5011091;28;20028;-30
2021/10/12 10:20:51;;;;;;;7.47;2.70;;;;;;;25.83;34.20;96963.97;5013875;28;20021;-30
2021/10/12 10:23:51;;;;;;;7.30;3.10;;;;;;;25.85;34.18;96963.06;4992528;28;20081;-33
2021/10/12 10:26:28;;;;;;;9.13;3.08;;;;;;;25.86;34.26;96959.53;4994391;28;20156;-38
2021/10/12 10:28:55;;;;;;;8.05;3.25;;;;;;;25.84;34.27;96949.09;5009983;28;20030;-34
2021/10/12 10:31:40;;;;;;;8.27;3.47;;;;;;;25.84;34.31;96941.22;5004479;28;20480;-35
2021/10/12 10:34:40;;;;;;;11.77;4.30;;;;;;;25.85;34.29;96950.78;5009570;28;20038;-31
2021/10/12 10:37:15;;;;;;;18.20;4.20;;;;;;;25.85;34.26;96942.91;5005699;28;20029;-34
2021/10/12 10:39:40;;;;;;;9.68;3.88;;;;;;;25.86;34.36;96943.75;5005088;28;20491;-33
2021/10/12 10:42:06;;;;;;;14.48;4.32;;;;;;;25.86;34.54;96938.53;4998021;28;20040;-34
2021/10/12 10:45:04;;;;;;;13.10;4.25;;;;;;;25.86;34.81;96943.75;5004034;28;20594;-32
2021/10/12 10:47:42;;;;;;;14.38;4.63;;;;;;;25.87;35.06;96950.72;4958519;28;20198;-35
2021/10/12 10:50:17;;;;;;;17.88;3.90;;;;;;;25.89;35.20;96941.00;5003838;28;20052;-34
2021/10/12 10:52:43;;;;;;;10.70;4.32;;;;;;;25.88;35.40;96932.25;5002425;28;20020;-34
2021/10/12 10:55:09;;;;;;;11.68;3.95;;;;;;;25.89;35.30;96927.88;5002510;28;20068;-32
2021/10/12 10:57:35;;;;;;;10.77;3.72;;;;;;;25.90;35.39;96929.56;5005509;28;20029;-33
2021/10/12 11:00:12;;;;;;;15.57;4.10;;;;;;;25.91;35.57;96920.75;5019020;28;20434;-35
2021/10/12 11:02:38;;;;;;;11.13;3.80;;;;;;;25.92;35.69;96911.94;5004004;28;20038;-30
2021/10/12 11:05:04;;;;;;;8.98;3.90;;;;;;;25.92;35.75;96918.06;5005827;28;20551;-35
2021/10/12 11:07:29;;;;;;;12.07;4.53;;;;;;;25.94;35.77;96915.34;5005295;28;20037;-38
2021/10/12 11:09:55;;;;;;;14.02;4.60;;;;;;;25.95;35.99;96914.41;5002532;28;20677;-32
2021/10/12 11:12:22;;;;;;;8.10;3.72;;;;;;;25.96;36.10;96913.47;5001580;28;20030;-36
2021/10/12 11:14:48;;;;;;;11.35;4.00;;;;;;;25.95;36.20;96902.16;5004386;28;20048;-31
2021/10/12 11:17:13;;;;;;;11.30;4.10;;;;;;;25.97;36.22;96904.66;5002269;28;20532;-36
2021/10/12 11:19:59;;;;;;;9.05;3.75;;;;;;;25.97;36.41;96899.41;4999513;28;20041;-38
2021/10/12 11:22:25;;;;;;;7.15;3.15;;;;;;;26.00;36.32;96898.44;5007591;28;20040;-34
2021/10/12 11:24:50;;;;;;;10.52;3.80;;;;;;;26.00;36.38;96895.81;5009487;28;20026;-31
2021/10/12 11:27:16;;;;;;;9.98;3.60;;;;;;;26.00;36.42;96896.63;5009277;28;20604;-34
2021/10/12 11:29:41;;;;;;;7.70;3.38;;;;;;;26.01;36.55;96897.50;5010159;28;20033;-31
2021/10/12 11:32:07;;;;;;;11.38;3.70;;;;;;;26.01;36.42;96892.25;5007079;28;20037;-31
2021/10/12 11:34:33;;;;;;;15.15;3.67;;;;;;;26.01;36.41;96885.19;5015556;28;20037;-38
2021/10/12 11:37:11;;;;;;;10.20;4.03;;;;;;;26.02;36.49;96881.66;5012297;28;20022;-32